createdAt,value
2019-06-10T00:00:13.802Z,20.30
2019-06-10T00:01:11.877Z,20.27
2019-06-10T00:02:10.902Z,20.32
2019-06-10T00:03:11.482Z,20.30
2019-06-10T00:04:12.491Z,20.33
2019-06-10T00:05:13.792Z,20.26
2019-06-10T00:06:11.516Z,20.33
2019-06-10T00:07:11.845Z,20.27
2019-06-10T00:08:11.822Z,20.32
2019-06-10T00:09:11.737Z,20.27
2019-06-10T00:10:10.774Z,20.30
2019-06-10T00:11:11.659Z,20.30
2019-06-10T00:12:12.375Z,20.30
2019-06-10T00:13:11.894Z,20.32
2019-06-10T00:14:10.718Z,20.24
2019-06-10T00:15:10.867Z,20.27
2019-06-10T00:16:11.508Z,20.26
2019-06-10T00:17:10.991Z,20.26
2019-06-10T00:18:33.313Z,20.29
2019-06-10T00:19:12.723Z,20.29
2019-06-10T00:20:11.205Z,20.30
2019-06-10T00:21:11.152Z,20.29
2019-06-10T00:22:11.534Z,20.27
2019-06-10T00:23:12.092Z,20.29
2019-06-10T00:24:11.797Z,20.27
2019-06-10T00:25:11.848Z,20.24
2019-06-10T00:26:12.187Z,20.22
2019-06-10T00:27:11.810Z,20.22
2019-06-10T00:28:12.139Z,20.24
2019-06-10T00:29:11.764Z,20.21
2019-06-10T00:30:12.086Z,20.27
2019-06-10T00:31:20.608Z,20.26
2019-06-10T00:32:21.320Z,20.22
2019-06-10T00:33:12.142Z,20.21
2019-06-10T00:34:12.096Z,20.26
2019-06-10T00:35:12.170Z,20.26
2019-06-10T00:36:21.371Z,20.17
2019-06-10T00:38:26.996Z,20.22
2019-06-10T00:39:27.010Z,20.14
2019-06-10T00:40:27.012Z,20.14
2019-06-10T00:41:26.932Z,20.17
2019-06-10T00:42:26.931Z,20.18
2019-06-10T00:43:26.929Z,20.11
2019-06-10T00:44:26.964Z,20.15
2019-06-10T00:45:26.942Z,20.17
2019-06-10T00:46:26.889Z,20.17
2019-06-10T00:47:26.899Z,20.14
2019-06-10T00:48:29.367Z,20.03
2019-06-10T00:49:27.904Z,20.08
2019-06-10T00:50:26.892Z,20.08
2019-06-10T00:51:26.914Z,20.10
2019-06-10T00:52:26.833Z,20.02
2019-06-10T00:53:26.848Z,20.07
2019-06-10T00:54:26.866Z,20.04
2019-06-10T00:55:26.843Z,20.04
2019-06-10T00:56:26.851Z,20.08
2019-06-10T00:57:26.808Z,20.04
2019-06-10T00:58:26.866Z,20.02
2019-06-10T00:59:26.757Z,19.99
2019-06-10T01:00:26.801Z,20.02
2019-06-10T01:01:26.762Z,20.04
2019-06-10T01:02:26.796Z,19.99
2019-06-10T01:03:26.724Z,19.96
2019-06-10T01:04:26.762Z,19.99
2019-06-10T01:05:26.705Z,19.93
2019-06-10T01:06:26.706Z,19.92
2019-06-10T01:08:43.776Z,19.97
2019-06-10T01:09:43.713Z,19.96
2019-06-10T01:10:44.354Z,19.90
2019-06-10T01:11:53.131Z,19.87
2019-06-10T01:12:43.681Z,19.90
2019-06-10T01:13:43.676Z,19.84
2019-06-10T01:14:43.656Z,19.89
2019-06-10T01:15:43.648Z,19.77
2019-06-10T01:16:43.645Z,19.75
2019-06-10T01:17:43.620Z,19.82
2019-06-10T01:18:43.660Z,19.75
2019-06-10T01:19:43.682Z,19.78
2019-06-10T01:20:43.635Z,19.78
2019-06-10T01:21:43.587Z,19.74
2019-06-10T01:22:43.637Z,19.79
2019-06-10T01:23:43.608Z,19.77
2019-06-10T01:24:43.589Z,19.74
2019-06-10T01:25:43.620Z,19.78
2019-06-10T01:26:43.547Z,19.71
2019-06-10T01:27:43.523Z,19.72
2019-06-10T01:28:43.649Z,19.63
2019-06-10T01:29:43.533Z,19.60
2019-06-10T01:30:43.524Z,19.57
2019-06-10T01:31:43.547Z,19.63
2019-06-10T01:32:43.538Z,19.71
2019-06-10T01:33:43.479Z,19.63
2019-06-10T01:34:43.446Z,19.57
2019-06-10T01:35:43.435Z,19.59
2019-06-10T01:36:43.495Z,19.55
2019-06-10T01:37:43.439Z,19.60
2019-06-10T01:38:43.423Z,19.60
2019-06-10T01:39:43.398Z,19.63
2019-06-10T01:40:43.428Z,19.63
2019-06-10T01:41:43.410Z,19.55
2019-06-10T01:42:43.381Z,19.57
2019-06-10T01:43:43.355Z,19.60
2019-06-10T01:44:43.351Z,19.64
2019-06-10T01:45:43.357Z,19.59
2019-06-10T01:46:43.328Z,19.62
2019-06-10T01:47:43.314Z,19.59
2019-06-10T01:48:47.855Z,19.59
2019-06-10T01:49:44.328Z,19.57
2019-06-10T01:50:43.322Z,19.62
2019-06-10T01:51:43.311Z,19.66
2019-06-10T01:52:43.284Z,19.64
2019-06-10T01:53:43.245Z,19.71
2019-06-10T01:54:43.249Z,19.66
2019-06-10T01:55:43.222Z,19.66
2019-06-10T01:56:43.270Z,19.71
2019-06-10T01:57:43.192Z,19.75
2019-06-10T01:58:43.184Z,19.72
2019-06-10T01:59:43.208Z,19.74
2019-06-10T02:00:43.182Z,19.74
2019-06-10T02:01:43.208Z,19.62
2019-06-10T02:02:44.532Z,19.74
2019-06-10T02:03:43.131Z,19.74
2019-06-10T02:04:43.147Z,19.74
2019-06-10T02:05:43.134Z,19.75
2019-06-10T02:06:43.123Z,19.77
2019-06-10T02:07:43.130Z,19.74
2019-06-10T02:08:43.078Z,19.78
2019-06-10T02:09:43.084Z,19.70
2019-06-10T02:10:43.099Z,19.75
2019-06-10T02:11:43.073Z,19.77
2019-06-10T02:12:43.069Z,19.72
2019-06-10T02:13:43.048Z,19.75
2019-06-10T02:14:43.022Z,19.72
2019-06-10T02:15:43.083Z,19.74
2019-06-10T02:16:43.018Z,19.77
2019-06-10T02:17:43.031Z,19.77
2019-06-10T02:18:56.879Z,19.72
2019-06-10T02:19:43.961Z,19.70
2019-06-10T02:20:42.963Z,19.77
2019-06-10T02:21:42.963Z,19.75
2019-06-10T02:22:42.952Z,19.77
2019-06-10T02:23:42.969Z,19.70
2019-06-10T02:24:42.920Z,19.56
2019-06-10T02:25:42.909Z,19.55
2019-06-10T02:26:42.917Z,19.75
2019-06-10T02:27:42.900Z,19.57
2019-06-10T02:28:42.900Z,19.63
2019-06-10T02:29:42.880Z,19.66
2019-06-10T02:30:50.845Z,19.59
2019-06-10T02:31:43.970Z,19.59
2019-06-10T02:32:43.087Z,19.48
2019-06-10T02:33:42.869Z,19.32
2019-06-10T02:35:00.868Z,19.34
2019-06-10T02:35:48.864Z,19.29
2019-06-10T02:36:44.585Z,19.23
2019-06-10T02:37:44.483Z,19.15
2019-06-10T02:38:44.409Z,19.08
2019-06-10T02:39:43.995Z,18.96
2019-06-10T02:40:43.515Z,18.89
2019-06-10T02:41:44.614Z,18.98
2019-06-10T02:42:43.608Z,19.05
2019-06-10T02:43:44.072Z,19.08
2019-06-10T02:44:44.577Z,18.96
2019-06-10T02:45:44.583Z,18.92
2019-06-10T02:46:43.976Z,18.92
2019-06-10T02:47:44.330Z,18.83
2019-06-10T02:48:43.656Z,18.82
2019-06-10T02:49:57.084Z,18.86
2019-06-10T02:50:44.283Z,18.71
2019-06-10T02:51:43.645Z,18.78
2019-06-10T02:52:44.499Z,18.57
2019-06-10T02:53:43.346Z,18.55
2019-06-10T02:54:43.823Z,18.53
2019-06-10T02:55:43.393Z,18.45
2019-06-10T02:56:44.217Z,18.43
2019-06-10T02:57:44.819Z,18.42
2019-06-10T02:58:44.833Z,18.37
2019-06-10T02:59:43.541Z,18.42
2019-06-10T03:00:48.116Z,18.33
2019-06-10T03:01:44.179Z,18.33
2019-06-10T03:02:45.131Z,18.27
2019-06-10T03:03:48.319Z,18.05
2019-06-10T03:04:43.483Z,17.80
2019-06-10T03:05:46.460Z,17.56
2019-06-10T03:06:44.820Z,17.46
2019-06-10T03:07:44.422Z,17.47
2019-06-10T03:08:43.629Z,17.30
2019-06-10T03:09:42.829Z,17.23
2019-06-10T03:10:44.256Z,17.14
2019-06-10T03:11:44.838Z,17.05
2019-06-10T03:12:42.529Z,16.94
2019-06-10T03:13:42.649Z,16.98
2019-06-10T03:14:42.439Z,16.94
2019-06-10T03:15:42.742Z,16.80
2019-06-10T03:16:42.400Z,16.73
2019-06-10T03:17:43.071Z,16.69
2019-06-10T03:18:43.399Z,16.68
2019-06-10T03:19:50.110Z,16.62
2019-06-10T03:20:43.331Z,16.64
2019-06-10T03:21:42.895Z,16.58
2019-06-10T03:22:42.451Z,16.57
2019-06-10T03:23:42.775Z,16.55
2019-06-10T03:24:42.305Z,16.58
2019-06-10T03:25:42.322Z,16.58
2019-06-10T03:26:42.803Z,16.54
2019-06-10T03:27:42.530Z,16.58
2019-06-10T03:28:42.769Z,16.54
2019-06-10T03:29:42.268Z,16.49
2019-06-10T03:30:53.359Z,16.54
2019-06-10T03:31:48.153Z,16.51
2019-06-10T03:32:47.093Z,16.50
2019-06-10T03:33:47.424Z,16.58
2019-06-10T03:34:47.448Z,16.59
2019-06-10T03:35:42.414Z,16.50
2019-06-10T03:36:42.958Z,16.54
2019-06-10T03:37:42.467Z,16.51
2019-06-10T03:38:43.204Z,16.59
2019-06-10T03:39:42.733Z,16.55
2019-06-10T03:40:43.412Z,16.59
2019-06-10T03:41:42.450Z,16.57
2019-06-10T03:42:42.814Z,16.62
2019-06-10T03:43:42.960Z,16.65
2019-06-10T03:44:43.083Z,16.61
2019-06-10T03:45:42.537Z,16.73
2019-06-10T03:46:43.166Z,16.76
2019-06-10T03:47:42.647Z,16.68
2019-06-10T03:48:43.332Z,16.83
2019-06-10T03:49:51.913Z,16.82
2019-06-10T03:50:43.207Z,16.82
2019-06-10T03:51:42.822Z,16.87
2019-06-10T03:52:43.176Z,16.84
2019-06-10T03:53:42.578Z,16.86
2019-06-10T03:54:43.232Z,16.95
2019-06-10T03:55:42.418Z,16.91
2019-06-10T03:56:43.017Z,16.99
2019-06-10T03:57:42.451Z,17.10
2019-06-10T03:58:43.159Z,16.92
2019-06-10T03:59:42.260Z,17.02
2019-06-10T04:00:43.045Z,17.10
2019-06-10T04:01:42.699Z,17.04
2019-06-10T04:02:43.057Z,17.05
2019-06-10T04:03:42.719Z,17.07
2019-06-10T04:04:42.984Z,17.10
2019-06-10T04:05:42.319Z,17.09
2019-06-10T04:06:44.179Z,16.97
2019-06-10T04:07:42.727Z,16.91
2019-06-10T04:08:43.259Z,16.89
2019-06-10T04:09:42.536Z,17.01
2019-06-10T04:10:42.950Z,16.91
2019-06-10T04:11:43.178Z,16.86
2019-06-10T04:12:43.449Z,16.77
2019-06-10T04:13:43.129Z,16.83
2019-06-10T04:14:42.052Z,16.82
2019-06-10T04:15:43.118Z,16.80
2019-06-10T04:16:43.310Z,16.77
2019-06-10T04:17:42.768Z,16.86
2019-06-10T04:18:43.016Z,16.91
2019-06-10T04:19:42.089Z,16.89
2019-06-10T04:20:42.923Z,16.92
2019-06-10T04:21:43.253Z,16.91
2019-06-10T04:22:41.662Z,16.84
2019-06-10T04:23:42.354Z,16.95
2019-06-10T04:24:43.102Z,16.80
2019-06-10T04:25:42.741Z,16.86
2019-06-10T04:26:43.473Z,16.83
2019-06-10T04:27:42.501Z,16.87
2019-06-10T04:28:42.978Z,16.84
2019-06-10T04:29:42.195Z,16.76
2019-06-10T04:30:43.297Z,16.83
2019-06-10T04:31:42.498Z,16.87
2019-06-10T04:32:42.950Z,16.89
2019-06-10T04:33:42.101Z,16.91
2019-06-10T04:34:43.295Z,16.86
2019-06-10T04:35:42.778Z,16.89
2019-06-10T04:36:42.248Z,16.91
2019-06-10T04:37:42.846Z,16.95
2019-06-10T04:38:43.225Z,16.91
2019-06-10T04:39:42.797Z,17.05
2019-06-10T04:40:43.067Z,17.16
2019-06-10T04:41:42.654Z,17.17
2019-06-10T04:42:43.483Z,17.17
2019-06-10T04:43:43.265Z,17.14
2019-06-10T04:44:42.289Z,17.16
2019-06-10T04:45:42.978Z,17.16
2019-06-10T04:46:42.825Z,17.17
2019-06-10T04:47:43.144Z,17.17
2019-06-10T04:48:42.710Z,17.19
2019-06-10T04:49:42.832Z,17.17
2019-06-10T04:50:45.974Z,17.19
2019-06-10T04:51:43.397Z,17.17
2019-06-10T04:52:43.146Z,17.14
2019-06-10T04:53:43.595Z,17.16
2019-06-10T04:54:42.135Z,17.12
2019-06-10T04:55:43.111Z,17.19
2019-06-10T04:56:42.868Z,17.27
2019-06-10T04:57:43.049Z,17.19
2019-06-10T04:58:43.282Z,17.10
2019-06-10T04:59:42.865Z,17.14
2019-06-10T05:00:42.905Z,17.14
2019-06-10T05:01:42.643Z,16.99
2019-06-10T05:02:43.036Z,17.02
2019-06-10T05:03:43.384Z,16.92
2019-06-10T05:04:42.595Z,16.91
2019-06-10T05:05:43.084Z,16.94
2019-06-10T05:06:42.252Z,16.94
2019-06-10T05:07:42.787Z,16.92
2019-06-10T05:08:42.681Z,16.95
2019-06-10T05:09:42.238Z,16.86
2019-06-10T05:10:42.401Z,16.87
2019-06-10T05:11:43.085Z,16.89
2019-06-10T05:12:43.203Z,16.89
2019-06-10T05:13:49.662Z,16.87
2019-06-10T05:14:52.539Z,16.79
2019-06-10T05:15:49.252Z,16.82
2019-06-10T05:16:43.074Z,16.86
2019-06-10T05:17:43.776Z,16.83
2019-06-10T05:18:42.373Z,16.84
2019-06-10T05:19:42.863Z,16.91
2019-06-10T05:20:54.005Z,16.83
2019-06-10T05:21:42.545Z,16.79
2019-06-10T05:22:42.486Z,16.80
2019-06-10T05:23:43.023Z,16.87
2019-06-10T05:24:42.430Z,16.82
2019-06-10T05:25:42.783Z,16.83
2019-06-10T05:26:42.545Z,16.80
2019-06-10T05:27:42.919Z,16.92
2019-06-10T05:28:43.317Z,16.87
2019-06-10T05:29:42.199Z,16.91
2019-06-10T05:30:42.601Z,16.91
2019-06-10T05:31:43.501Z,16.91
2019-06-10T05:32:42.993Z,16.86
2019-06-10T05:33:42.677Z,16.94
2019-06-10T05:34:43.523Z,16.91
2019-06-10T05:35:42.711Z,16.95
2019-06-10T05:36:43.300Z,16.98
2019-06-10T05:37:42.283Z,16.92
2019-06-10T05:38:43.193Z,16.98
2019-06-10T05:39:42.406Z,16.92
2019-06-10T05:40:42.768Z,16.87
2019-06-10T05:41:43.048Z,16.83
2019-06-10T05:42:42.656Z,16.76
2019-06-10T05:43:42.790Z,16.77
2019-06-10T05:44:42.921Z,16.74
2019-06-10T05:45:42.419Z,16.74
2019-06-10T05:46:43.290Z,16.72
2019-06-10T05:47:42.685Z,16.72
2019-06-10T05:48:40.768Z,16.74
2019-06-10T05:49:42.929Z,16.69
2019-06-10T05:50:42.760Z,16.73
2019-06-10T05:51:42.281Z,16.66
2019-06-10T05:52:42.740Z,16.61
2019-06-10T05:53:42.247Z,16.57
2019-06-10T05:54:42.964Z,16.50
2019-06-10T05:55:42.770Z,16.62
2019-06-10T05:56:43.025Z,16.55
2019-06-10T05:57:42.832Z,16.51
2019-06-10T05:58:43.347Z,16.55
2019-06-10T05:59:43.136Z,16.55
2019-06-10T06:00:42.723Z,16.57
2019-06-10T06:01:42.892Z,16.51
2019-06-10T06:02:43.097Z,16.49
2019-06-10T06:03:40.618Z,16.61
2019-06-10T06:04:42.682Z,16.65
2019-06-10T06:05:40.595Z,16.73
2019-06-10T06:06:42.453Z,16.72
2019-06-10T06:07:42.356Z,16.80
2019-06-10T06:08:42.782Z,16.82
2019-06-10T06:09:42.582Z,16.94
2019-06-10T06:10:42.394Z,16.98
2019-06-10T06:11:42.814Z,17.01
2019-06-10T06:12:42.487Z,17.02
2019-06-10T06:13:42.984Z,17.10
2019-06-10T06:14:42.452Z,17.14
2019-06-10T06:15:42.422Z,17.20
2019-06-10T06:16:42.991Z,17.24
2019-06-10T06:17:42.956Z,17.31
2019-06-10T06:18:42.215Z,17.39
2019-06-10T06:19:43.161Z,17.38
2019-06-10T06:20:40.407Z,17.47
2019-06-10T06:21:47.071Z,17.44
2019-06-10T06:22:42.888Z,17.49
2019-06-10T06:23:40.395Z,17.52
2019-06-10T06:24:42.631Z,17.53
2019-06-10T06:25:44.283Z,17.52
2019-06-10T06:26:43.278Z,17.57
2019-06-10T06:27:42.082Z,17.47
2019-06-10T06:28:42.906Z,17.54
2019-06-10T06:29:42.964Z,17.52
2019-06-10T06:30:42.316Z,17.42
2019-06-10T06:31:42.722Z,17.39
2019-06-10T06:32:40.428Z,17.53
2019-06-10T06:33:42.970Z,17.50
2019-06-10T06:34:40.257Z,17.56
2019-06-10T06:35:45.547Z,17.66
2019-06-10T06:36:42.277Z,17.78
2019-06-10T06:37:42.725Z,17.87
2019-06-10T06:38:40.213Z,17.90
2019-06-10T06:39:42.754Z,17.94
2019-06-10T06:40:40.204Z,18.00
2019-06-10T06:41:42.399Z,18.08
2019-06-10T06:42:40.202Z,18.08
2019-06-10T06:43:44.384Z,18.12
2019-06-10T06:44:40.139Z,18.19
2019-06-10T06:45:42.647Z,18.16
2019-06-10T06:46:42.664Z,18.13
2019-06-10T06:47:40.158Z,18.19
2019-06-10T06:48:41.004Z,18.30
2019-06-10T06:49:42.381Z,18.31
2019-06-10T06:50:59.090Z,18.37
2019-06-10T06:51:51.819Z,18.53
2019-06-10T06:53:15.360Z,18.57
2019-06-10T06:53:50.371Z,18.78
2019-06-10T06:54:42.431Z,18.68
2019-06-10T06:55:40.041Z,18.70
2019-06-10T06:56:41.210Z,18.79
2019-06-10T06:57:40.162Z,18.86
2019-06-10T06:58:40.713Z,18.73
2019-06-10T06:59:40.850Z,18.78
2019-06-10T07:00:57.402Z,18.63
2019-06-10T07:01:44.039Z,18.63
2019-06-10T07:02:40.909Z,18.67
2019-06-10T07:03:41.810Z,18.58
2019-06-10T07:04:40.465Z,18.53
2019-06-10T07:05:41.026Z,18.67
2019-06-10T07:06:40.357Z,18.64
2019-06-10T07:07:41.090Z,18.66
2019-06-10T07:08:41.485Z,18.74
2019-06-10T07:09:41.220Z,18.73
2019-06-10T07:10:41.436Z,18.83
2019-06-10T07:11:41.113Z,18.88
2019-06-10T07:12:41.073Z,19.04
2019-06-10T07:13:43.395Z,19.05
2019-06-10T07:14:44.737Z,19.29
2019-06-10T07:15:42.183Z,19.38
2019-06-10T07:16:44.322Z,19.38
2019-06-10T07:17:45.143Z,19.55
2019-06-10T07:18:48.742Z,19.52
2019-06-10T07:19:42.116Z,19.57
2019-06-10T07:20:40.972Z,19.62
2019-06-10T07:21:57.986Z,19.72
2019-06-10T07:22:42.779Z,19.84
2019-06-10T07:23:45.164Z,19.96
2019-06-10T07:24:43.055Z,20.07
2019-06-10T07:25:46.542Z,20.17
2019-06-10T07:26:45.340Z,20.26
2019-06-10T07:27:45.131Z,20.34
2019-06-10T07:28:45.075Z,20.44
2019-06-10T07:29:46.487Z,20.33
2019-06-10T07:30:47.772Z,20.24
2019-06-10T07:31:43.485Z,20.24
2019-06-10T07:32:41.532Z,20.19
2019-06-10T07:33:43.045Z,20.11
2019-06-10T07:34:42.274Z,19.94
2019-06-10T07:35:41.606Z,19.96
2019-06-10T07:36:40.858Z,19.94
2019-06-10T07:37:41.059Z,19.93
2019-06-10T07:38:41.847Z,19.96
2019-06-10T07:39:41.730Z,19.96
2019-06-10T07:40:39.590Z,19.94
2019-06-10T07:41:39.654Z,19.90
2019-06-10T07:42:39.558Z,19.99
2019-06-10T07:43:42.555Z,20.08
2019-06-10T07:44:43.158Z,20.08
2019-06-10T07:45:41.592Z,20.12
2019-06-10T07:46:43.460Z,20.15
2019-06-10T07:47:41.723Z,20.15
2019-06-10T07:48:41.094Z,20.22
2019-06-10T07:49:39.481Z,20.29
2019-06-10T07:50:39.478Z,20.32
2019-06-10T07:51:39.565Z,20.34
2019-06-10T07:52:39.448Z,20.37
2019-06-10T07:53:40.023Z,20.40
2019-06-10T07:54:39.459Z,20.36
2019-06-10T07:55:39.595Z,20.34
2019-06-10T07:56:45.190Z,20.24
2019-06-10T07:57:43.609Z,20.27
2019-06-10T07:58:40.122Z,20.27
2019-06-10T07:59:39.574Z,20.24
2019-06-10T08:00:40.807Z,20.17
2019-06-10T08:01:48.106Z,20.15
2019-06-10T08:02:42.829Z,20.22
2019-06-10T08:03:39.858Z,20.24
2019-06-10T08:04:39.984Z,20.26
2019-06-10T08:05:40.107Z,20.33
2019-06-10T08:06:39.856Z,20.24
2019-06-10T08:07:39.295Z,20.29
2019-06-10T08:08:39.333Z,20.36
2019-06-10T08:09:39.277Z,20.52
2019-06-10T08:10:39.332Z,20.58
2019-06-10T08:11:39.371Z,20.71
2019-06-10T08:12:39.337Z,20.75
2019-06-10T08:13:39.360Z,20.70
2019-06-10T08:14:39.550Z,20.68
2019-06-10T08:15:39.750Z,20.77
2019-06-10T08:16:39.871Z,20.88
2019-06-10T08:17:40.395Z,20.80
2019-06-10T08:19:07.067Z,20.93
2019-06-10T08:19:45.413Z,21.00
2019-06-10T08:20:43.516Z,21.01
2019-06-10T08:21:40.649Z,21.10
2019-06-10T08:22:49.186Z,21.26
2019-06-10T08:23:41.037Z,21.40
2019-06-10T08:24:39.390Z,21.44
2019-06-10T08:25:40.370Z,21.47
2019-06-10T08:26:39.377Z,21.53
2019-06-10T08:27:40.281Z,21.51
2019-06-10T08:28:39.650Z,21.63
2019-06-10T08:29:39.067Z,21.68
2019-06-10T08:30:39.864Z,21.74
2019-06-10T08:31:39.083Z,21.77
2019-06-10T08:32:40.048Z,21.92
2019-06-10T08:33:39.092Z,22.00
2019-06-10T08:34:42.979Z,22.19
2019-06-10T08:35:48.540Z,22.10
2019-06-10T08:36:42.172Z,22.28
2019-06-10T08:37:40.808Z,22.30
2019-06-10T08:38:40.259Z,22.34
2019-06-10T08:39:40.184Z,22.36
2019-06-10T08:40:40.643Z,22.47
2019-06-10T08:41:39.011Z,22.46
2019-06-10T08:42:39.014Z,22.51
2019-06-10T08:43:38.952Z,22.58
2019-06-10T08:44:38.921Z,22.74
2019-06-10T08:45:38.987Z,22.86
2019-06-10T08:46:38.885Z,22.92
2019-06-10T08:47:39.224Z,23.04
2019-06-10T08:48:39.050Z,22.99
2019-06-10T08:49:39.139Z,22.98
2019-06-10T08:50:39.336Z,22.96
2019-06-10T08:51:39.688Z,23.16
2019-06-10T08:52:56.917Z,23.13
2019-06-10T08:53:42.548Z,23.11
2019-06-10T08:54:41.276Z,22.99
2019-06-10T08:55:42.206Z,22.88
2019-06-10T08:56:40.056Z,22.98
2019-06-10T08:57:42.437Z,23.02
2019-06-10T08:58:40.892Z,23.07
2019-06-10T08:59:39.996Z,23.23
2019-06-10T09:00:40.168Z,23.25
2019-06-10T09:01:39.464Z,23.36
2019-06-10T09:02:40.634Z,23.32
2019-06-10T09:03:40.162Z,23.36
2019-06-10T09:04:39.259Z,23.37
2019-06-10T09:05:39.577Z,23.42
2019-06-10T09:06:50.604Z,23.52
2019-06-10T09:07:49.995Z,23.54
2019-06-10T09:10:02.973Z,23.51
2019-06-10T09:11:12.953Z,23.37
2019-06-10T09:12:03.453Z,23.37
2019-06-10T09:13:02.789Z,23.37
2019-06-10T09:14:02.576Z,23.45
2019-06-10T09:15:13.049Z,23.49
2019-06-10T09:16:16.650Z,23.52
2019-06-10T09:18:23.662Z,23.81
2019-06-10T09:19:23.667Z,23.74
2019-06-10T09:20:23.622Z,23.91
2019-06-10T09:21:23.912Z,24.00
2019-06-10T09:22:23.760Z,24.04
2019-06-10T09:23:25.630Z,24.16
2019-06-10T09:24:23.573Z,24.07
2019-06-10T09:25:23.562Z,23.96
2019-06-10T09:26:23.557Z,24.00
2019-06-10T09:27:26.663Z,24.01
2019-06-10T09:28:23.654Z,24.07
2019-06-10T09:29:33.491Z,24.07
2019-06-10T09:30:23.634Z,24.10
2019-06-10T09:31:33.531Z,24.07
2019-06-10T09:32:32.557Z,24.04
2019-06-10T09:34:43.042Z,24.18
2019-06-10T09:35:50.948Z,24.25
2019-06-10T09:36:51.805Z,24.26
2019-06-10T09:38:33.749Z,24.46
2019-06-10T09:39:48.497Z,24.48
2019-06-10T09:40:34.318Z,24.63
2019-06-10T09:41:41.120Z,24.71
2019-06-10T09:42:34.167Z,24.79
2019-06-10T09:43:46.876Z,24.93
2019-06-10T09:44:34.139Z,25.03
2019-06-10T09:45:45.902Z,24.93
2019-06-10T09:46:33.327Z,25.03
2019-06-10T09:47:34.747Z,25.04
2019-06-10T09:48:33.724Z,25.11
2019-06-10T09:49:33.649Z,25.40
2019-06-10T09:50:33.414Z,25.55
2019-06-10T09:51:33.057Z,25.68
2019-06-10T09:52:33.078Z,25.83
2019-06-10T09:53:41.367Z,25.74
2019-06-10T09:54:34.004Z,25.74
2019-06-10T09:55:33.050Z,25.88
2019-06-10T09:56:33.209Z,25.67
2019-06-10T09:57:33.019Z,25.73
2019-06-10T09:58:33.229Z,25.55
2019-06-10T09:59:33.202Z,25.55
2019-06-10T10:00:48.825Z,25.54
2019-06-10T10:04:02.469Z,25.70
2019-06-10T10:05:12.308Z,25.73
2019-06-10T10:07:04.120Z,25.77
2019-06-10T10:08:12.850Z,25.81
2019-06-10T10:09:12.633Z,25.88
2019-06-10T10:11:21.258Z,26.03
2019-06-10T10:12:22.703Z,26.11
2019-06-10T10:13:35.969Z,26.06
2019-06-10T10:14:30.083Z,26.11
2019-06-10T10:15:31.592Z,26.24
2019-06-10T10:16:22.454Z,26.30
2019-06-10T10:17:23.012Z,26.59
2019-06-10T10:18:23.570Z,26.71
2019-06-10T10:19:23.030Z,26.86
2019-06-10T10:20:22.818Z,27.08
2019-06-10T10:21:22.249Z,27.26
2019-06-10T10:22:22.751Z,27.34
2019-06-10T10:23:22.681Z,27.43
2019-06-10T10:24:22.890Z,27.48
2019-06-10T10:25:20.478Z,27.35
2019-06-10T10:26:20.480Z,27.20
2019-06-10T10:27:20.521Z,27.30
2019-06-10T10:28:23.042Z,27.35
2019-06-10T10:29:21.420Z,27.45
2019-06-10T10:30:20.494Z,27.44
2019-06-10T10:31:23.037Z,27.33
2019-06-10T10:32:22.591Z,26.88
2019-06-10T10:33:23.873Z,26.53
2019-06-10T10:34:23.569Z,26.44
2019-06-10T10:35:20.369Z,26.49
2019-06-10T10:36:22.425Z,26.59
2019-06-10T10:37:22.751Z,26.59
2019-06-10T10:38:22.727Z,26.60
2019-06-10T10:39:22.016Z,26.82
2019-06-10T10:40:32.587Z,26.81
2019-06-10T10:41:23.212Z,26.83
2019-06-10T10:42:41.679Z,26.92
2019-06-10T10:43:28.859Z,27.13
2019-06-10T10:44:21.700Z,27.33
2019-06-10T10:45:22.668Z,27.34
2019-06-10T10:48:14.101Z,27.53
2019-06-10T10:49:14.646Z,27.44
2019-06-10T10:50:13.986Z,27.48
2019-06-10T10:51:13.407Z,27.50
2019-06-10T10:52:13.056Z,27.52
2019-06-10T10:53:13.644Z,27.45
2019-06-10T10:54:28.408Z,27.53
2019-06-10T10:55:14.170Z,27.47
2019-06-10T10:56:13.269Z,27.53
2019-06-10T10:57:13.755Z,27.57
2019-06-10T10:58:13.066Z,27.60
2019-06-10T10:59:13.478Z,27.48
2019-06-10T11:00:13.064Z,27.61
2019-06-10T11:01:15.091Z,27.61
2019-06-10T11:02:13.072Z,27.52
2019-06-10T11:03:13.366Z,27.43
2019-06-10T11:04:13.361Z,27.45
2019-06-10T11:05:12.942Z,27.41
2019-06-10T11:06:23.469Z,27.40
2019-06-10T11:07:13.064Z,27.43
2019-06-10T11:08:14.211Z,27.38
2019-06-10T11:09:13.709Z,27.48
2019-06-10T11:10:13.099Z,27.47
2019-06-10T11:11:23.651Z,27.63
2019-06-10T11:12:12.855Z,27.72
2019-06-10T11:13:12.728Z,27.78
2019-06-10T11:14:14.988Z,27.73
2019-06-10T11:16:33.065Z,27.86
2019-06-10T11:17:43.376Z,27.95
2019-06-10T11:18:30.789Z,27.93
2019-06-10T11:19:32.391Z,27.90
2019-06-10T11:20:33.587Z,27.79
2019-06-10T11:21:32.880Z,27.85
2019-06-10T11:22:32.892Z,27.86
2019-06-10T11:23:34.249Z,27.90
2019-06-10T11:24:37.751Z,27.91
2019-06-10T11:26:43.131Z,28.04
2019-06-10T11:27:43.125Z,28.19
2019-06-10T11:28:42.844Z,28.12
2019-06-10T11:29:42.259Z,28.13
2019-06-10T11:30:42.593Z,28.15
2019-06-10T11:31:42.592Z,28.16
2019-06-10T11:32:43.243Z,28.22
2019-06-10T11:33:43.428Z,28.27
2019-06-10T11:34:42.908Z,28.25
2019-06-10T11:35:42.803Z,28.38
2019-06-10T11:36:42.638Z,28.37
2019-06-10T11:37:42.268Z,28.35
2019-06-10T11:38:41.688Z,28.46
2019-06-10T11:39:41.694Z,28.38
2019-06-10T11:40:42.832Z,28.46
2019-06-10T11:41:52.861Z,28.47
2019-06-10T11:45:10.292Z,28.64
2019-06-10T11:46:19.623Z,28.64
2019-06-10T11:47:19.814Z,28.80
2019-06-10T11:48:10.262Z,28.78
2019-06-10T11:49:12.413Z,28.83
2019-06-10T11:50:12.141Z,28.87
2019-06-10T11:51:12.737Z,28.94
2019-06-10T11:52:12.512Z,28.97
2019-06-10T11:53:12.616Z,29.07
2019-06-10T11:54:12.648Z,29.09
2019-06-10T11:55:18.321Z,29.12
2019-06-10T11:56:13.111Z,29.10
2019-06-10T11:57:12.368Z,29.13
2019-06-10T11:58:10.405Z,29.25
2019-06-10T11:59:13.347Z,29.18
2019-06-10T12:00:14.818Z,29.02
2019-06-10T12:01:12.964Z,28.93
2019-06-10T12:02:10.137Z,29.07
2019-06-10T12:03:10.159Z,29.05
2019-06-10T12:04:17.762Z,29.06
2019-06-10T12:05:12.823Z,29.12
2019-06-10T12:06:10.066Z,29.30
2019-06-10T12:07:10.144Z,29.40
2019-06-10T12:08:12.806Z,29.62
2019-06-10T12:09:10.133Z,29.76
2019-06-10T12:10:12.656Z,29.87
2019-06-10T12:11:12.410Z,30.02
2019-06-10T12:12:12.674Z,30.21
2019-06-10T12:13:10.254Z,30.44
2019-06-10T12:14:19.208Z,30.69
2019-06-10T12:15:18.734Z,30.80
2019-06-10T12:17:14.961Z,30.93
2019-06-10T12:17:40.042Z,31.14
2019-06-10T12:18:13.023Z,31.26
2019-06-10T12:19:12.508Z,31.33
2019-06-10T12:20:13.072Z,31.42
2019-06-10T12:21:12.763Z,31.63
2019-06-10T12:22:10.006Z,31.60
2019-06-10T12:23:09.904Z,31.73
2019-06-10T12:24:12.479Z,31.63
2019-06-10T12:25:30.393Z,31.60
2019-06-10T12:26:10.824Z,31.57
2019-06-10T12:27:09.768Z,31.41
2019-06-10T12:28:09.759Z,31.48
2019-06-10T12:29:12.257Z,31.44
2019-06-10T12:30:09.729Z,31.29
2019-06-10T12:31:13.039Z,31.32
2019-06-10T12:32:09.733Z,31.08
2019-06-10T12:33:09.703Z,31.00
2019-06-10T12:34:12.329Z,30.83
2019-06-10T12:35:22.816Z,30.83
2019-06-10T12:37:28.133Z,31.00
2019-06-10T12:38:37.433Z,31.10
2019-06-10T12:40:44.949Z,30.96
2019-06-10T12:41:55.996Z,30.96
2019-06-10T12:42:45.952Z,30.93
2019-06-10T12:43:44.958Z,31.00
2019-06-10T12:44:57.277Z,31.02
2019-06-10T12:45:45.035Z,30.95
2019-06-10T12:46:44.883Z,30.88
2019-06-10T12:47:44.881Z,30.59
2019-06-10T12:48:44.850Z,30.32
2019-06-10T12:51:07.976Z,29.92
2019-06-10T12:52:12.530Z,29.74
2019-06-10T12:53:06.977Z,29.76
2019-06-10T12:54:05.774Z,29.81
2019-06-10T12:55:03.756Z,29.95
2019-06-10T12:56:09.558Z,29.99
2019-06-10T12:57:05.266Z,30.10
2019-06-10T12:58:04.220Z,30.27
2019-06-10T12:59:06.684Z,30.43
2019-06-10T13:00:15.797Z,30.52
2019-06-10T13:01:05.757Z,30.73
2019-06-10T13:02:21.895Z,30.83
2019-06-10T13:03:05.018Z,31.04
2019-06-10T13:04:05.388Z,31.29
2019-06-10T13:05:06.103Z,31.82
2019-06-10T13:06:06.650Z,32.09
2019-06-10T13:07:05.646Z,32.38
2019-06-10T13:08:13.255Z,33.01
2019-06-10T13:09:13.175Z,33.22
2019-06-10T13:10:12.142Z,33.47
2019-06-10T13:11:02.254Z,33.77
2019-06-10T13:12:02.252Z,34.11
2019-06-10T13:13:05.678Z,34.38
2019-06-10T13:14:06.477Z,34.91
2019-06-10T13:15:04.768Z,35.34